My Meet Scores
Jessica Smith, Flipstar Gymnastics Academy - MyMeetScores.com
Top100 | Top Teams | Upcoming Meets | Completed Meets | Latest | Add Scores | Help| Support | Bookmark and Share

Jessica Smith, Flipstar Gymnastics Academy
Personal Bests
LevelVault BarsBeamFloorAA
8.8008.500 7.1008.22532.625
49.2257.650 6.9508.90032.725
59.4758.550 9.2758.70035.750
69.2508.525 9.3758.72535.150
79.4008.100 8.7259.00034.800
89.1508.550 9.1009.10035.700
Meet Scores
Date Meet Team Session Level Division Vault Bars Beam Floor AA
2016-03-18 2016 Illinois Level 8, 9, 10 State Championships Flipstar Gymnastics Academy 09 8 8 Sr E 9.000 8 8.550 20 9.100 7T 9.050 15T 35.700 6
2016-02-20 Big Classic Flipstar Gymnastics Academy 6A 8 Senior C 8.925 11 8.300 11 8.300 14 8.700 14 34.225 14
2015-04-24 2015 Region 5 Level 8 Championship Flipstar Gymnastics Academy 3 8 SR D1 9.150 10T 7.950 20 8.400 25 8.450 29 33.950 24
2015-03-27 2015 Illinois Level 8,9,10 State Championships Flipstar Gymnastics Academy 10 8 SrD 8.800 16 8.000 16 8.300 23 8.900 26 34.000 22
2015-03-05 Spring Hill Elgin Invitational Flipstar Gymnastics Academy 8A 8 SR 8.900 12T 8.175 40 8.750 26T 8.750 53T 34.575 34
2015-02-13 IGI Chicago Style Gymnastics Meet Flipstar Gymnastics Academy 412 8 14 & Older 8.800 11 6.900 24 7.950 16 8.650 15T 32.300 21T
2014-04-25 2014 Region 5 Level 8 Championships Flipstar Gymnastics Academy 8 Sr C 8.550 44 6.300 52 8.100 54 8.800 55 31.750 54
2014-03-21 2014 Illinois Level 8, 9, 10 State Championships Flipstar Gymnastics Academy 8 Sr.C 8.725 20 7.700 28 8.500 29 9.100 22 34.025 28
2014-02-21 EGGS Invite Flipstar Gymnastics Academy 5 8 14+yrs 8.500 5T 8.050 6T 8.375 10 8.775 10 33.700 5
2014-02-15 BIG Dream Classic 2014 Flipstar Gymnastics Academy 2B 8 Senior A 8.650 8 7.375 12 7.500 15 8.700 14 32.225 12
2014-02-07 IGI Chicago Style Gymnastics Meet Flipstar Gymnastics Academy 412 8 14 & Over 8.400 16T 7.650 13 7.650 25 8.550 22 32.250 19
2013-03-15 2013 Illinois Level 6, 7 State Meet Flipstar Gymnastics Academy 7 7 Sr.D 9.150 25 5.500 32 8.700 13 8.425 30 31.775 32
2013-02-16 BIG Dream Classic 2013 Flipstar Gymnastics Academy 2B 7 Senior B 9.325 10 8.100 9 8.725 6 8.650 12 34.800 8
2013-02-08 IGI Chicago Style Gymnastics Meet Flipstar Gymnastics Academy 132 7 13 & Over 9.400 12 7.700 24 7.450 33 9.000 18T 33.550 25
2013-01-12 St. Jude Benefit Meet Flipstar Gymnastics Academy GymB 7 13+ 8.900 22 5.900 30 7.950 20 8.600 25 31.350 26
2012-11-30 Ultimate Wish Classic 2012 Flipstar Gymnastics Academy 7 L7 Sr B S1 8.950 13 7.150 14 7.750 15 8.600 14 32.450 13
2012-11-09 2012 Illinois Judges Cup Flipstar Gymnastics Academy 3A 7 13+ 9.000 10 8.050 14 7.150 21 8.325 12 32.525 17
2012-03-16 2012 Illinois Level 6, 7 State Championships Flipstar Gymnastics Academy 4 6 Sr.C 9.025 10 7.800 19T 9.125 3 8.725 21 34.675 15
2012-02-25 Midwest Open 2012 Flipstar Gymnastics Academy 5B 6 Lvl 6: 12 & up 9.250 3 7.700 21 8.725 9 8.050 22 33.725 17
2012-02-10 IGI Chicago Style Gymnastics Flipstar Gymnastics Academy 531 6 12 & Over 9.050 5T 8.400 18 9.375 4T 8.325 20T 35.150 10
2012-01-28 2012 King Arthur Invitational Flipstar Gymnastics Academy 8 6 Sr.B 9.050 4 8.250 7 9.150 5 8.100 13 34.550 6
2012-01-06 Crossroads Classic Flipstar Gymnastics Academy All Sessions Combined 6 SR 9.025 6 7.950 7 8.450 9 8.550 8 33.975 7
2011-12-02 2011 Ultimate Wish Classic Flipstar Gymnastics Academy 8 6 Sr. 9.125 3 8.450 9 9.125 8 8.200 14 34.900 7
2011-11-11 2011 Illinois Judges Cup Flipstar Gymnastics Academy 7A 6 11-12 9.050 2 8.250 13 8.500 16 8.425 21 34.225 15
2011-03-25 2011 Illinois Level 6-9-10 State Meet Flipstar Gymnastics Academy 3 6 Jr.C 8.400 27 8.050 22 8.900 13 7.500 27 32.850 26
2011-03-04 Flip'r Meet Flipstar Gymnastics Academy 5 6 11 8.750 12 8.200 14 8.450 16 7.300 19 32.700 18
2011-02-26 Midwest Open Flipstar Gymnastics Academy 7A 6 11 8.425 16 7.500 16 8.225 16 7.550 17 31.700 17
2011-02-19 Big Dream Classic Flipstar Gymnastics Academy 1A 6 11 yrs 8.925 13 7.250 24 7.375 24 0.000 25 23.550 25
2011-02-11 IGI Chicago Style Gymnastics Meet Flipstar Gymnastics Academy 512 6 11 Yr Olds 9.175 6 6.700 25 8.375 23T 0.000 26T 24.250 26
2011-01-08 Crossroads Classic Flipstar Gymnastics Academy 3A 6 Jr 9.200 2 8.000 4T 8.750 2T 8.050 8T 34.000 3
2010-12-03 Make a Wish Flipstar Gymnastics Academy 11 6 11 9.225 3 8.525 14 9.075 8 7.200 25 34.025 20
2010-04-23 2010 Illinois Level 5 State Championships Flipstar Gymnastics Academy 5 Jr.B 9.475 5 8.450 24 9.275 5 8.550 29 35.750 17
2010-02-27 Midwest Open Flipstar Gymnastics Academy 3A 5 10 8.825 13 8.550 18 8.825 8 8.325 19 34.525 15
2010-02-20 BIG Dream Classic 2010 Flipstar Gymnastics Academy 2A 5 10 8.675 15 8.500 20 8.900 19 8.650 23 34.725 18
2010-02-12 IGI Chicago Style Gymnastics Meet Flipstar Gymnastics Academy 621 5 10 Yr Olds 8.400 19 8.000 18 8.225 22T 8.225 17 32.850 18
2010-01-30 The King Arthur Invitational 2010 Flipstar Gymnastics Academy 5 SrA 8.525 9 7.550 22 8.925 7 8.200 18 33.200 18
2010-01-22 Bravo Classic 2010 Flipstar Gymnastics Academy 3B 5 10 8.600 4 8.000 8 8.375 6 7.850 12 32.825 7
2009-12-04 Ultimate Wish Classic Flipstar Gymnastics Academy 9 5 Ch9-11 8.100 33T 7.550 37T 9.125 5T 8.025 40 32.800 35
2009-11-13 2009 North Judges Cup Flipstar Gymnastics Academy 6A 5 10 8.350 6 7.800 10 8.800 5 8.250 10 33.200 8
2009-04-03 2009 Illinois Level 5 State Championships Gym Kinetics Sports Complex 3 5 YouthB 8.825 15 8.050 28 8.950 14 8.700 27 34.525 22
2009-02-13 For Love or Money Gym Kinetics Sports Complex LoveGym 5 9 9.050 26T 7.325 76 8.625 60 8.450 70T 33.450 63T
2009-01-17 St. Jude Benefit Meet Gym Kinetics Sports Complex 8 5 Lvl5:9 8.550 9 8.000 18 8.650 10 8.350 33.550 19
2008-12-13 St Nick Invite Gym Kinetics Sports Complex 6 5 All 8.300 38 7.750 55 7.950 57 8.200 60 32.200 60
2008-11-22 Thanksgiving Classic Gym Kinetics Sports Complex 5 5 Ch 9 8.000 18T 7.300 16 7.350 21 8.375 13T 31.025 20
2008-11-15 Thanks To You Co~Ed Classic Gym Kinetics Sports Complex 3 5 7-9yrs 7.200 31 7.850 18 7.400 30 7.675 24 30.125 29
2008-02-09 For Love or Money 2008 Gym Kinetics Sports Complex LoveGym 4 8 9.225 52T 7.650 100T 6.950 113 8.900 67T 32.725 105
2008-02-09 For Love or Money 2008 Gym Kinetics Sports Complex MoneyGym 4 8 0.000 1T 0.000 1T 0.000 1T 0.000 1T 0.000 1T

www.lazysuits.com